createdAt,value
2019-04-25T00:00:56.029Z,84.88
2019-04-25T00:03:28.020Z,84.40
2019-04-25T00:05:57.840Z,84.00
2019-04-25T00:08:27.627Z,83.97
2019-04-25T00:10:57.294Z,83.74
2019-04-25T00:13:27.304Z,83.58
2019-04-25T00:15:56.982Z,84.88
2019-04-25T00:18:26.720Z,84.88
2019-04-25T00:21:01.421Z,83.79
2019-04-25T00:23:31.755Z,83.35
2019-04-25T00:26:21.135Z,83.42
2019-04-25T00:28:52.292Z,83.01
2019-04-25T00:31:22.140Z,82.59
2019-04-25T00:33:53.318Z,82.93
2019-04-25T00:36:23.229Z,82.97
2019-04-25T00:38:53.317Z,82.88
2019-04-25T00:41:23.106Z,82.88
2019-04-25T00:43:53.139Z,82.24
2019-04-25T00:46:22.743Z,82.97
2019-04-25T00:48:52.717Z,82.97
2019-04-25T00:51:22.319Z,82.53
2019-04-25T00:53:54.715Z,82.53
2019-04-25T00:56:23.634Z,82.43
2019-04-25T00:59:11.801Z,82.43
2019-04-25T01:02:07.647Z,83.68
2019-04-25T01:04:37.895Z,83.07
2019-04-25T01:07:07.660Z,83.07
2019-04-25T01:09:37.676Z,83.60
2019-04-25T01:12:07.417Z,82.46
2019-04-25T01:14:37.092Z,83.24
2019-04-25T01:17:06.639Z,83.80
2019-04-25T01:19:36.478Z,82.53
2019-04-25T01:22:07.743Z,83.02
2019-04-25T01:24:37.406Z,83.89
2019-04-25T01:27:10.055Z,83.30
2019-04-25T01:29:39.852Z,83.45
2019-04-25T01:32:11.208Z,83.45
2019-04-25T01:34:48.477Z,84.03
2019-04-25T01:37:34.055Z,84.28
2019-04-25T01:40:33.414Z,83.88
2019-04-25T01:43:19.020Z,84.08
2019-04-25T01:45:49.645Z,84.10
2019-04-25T01:48:19.456Z,84.24
2019-04-25T01:50:49.635Z,84.20
2019-04-25T01:53:20.045Z,84.20
2019-04-25T01:55:55.870Z,83.51
2019-04-25T01:58:21.788Z,82.78
2019-04-25T02:00:54.581Z,82.78
2019-04-25T02:03:27.291Z,82.71
2019-04-25T02:05:57.619Z,82.43
2019-04-25T02:08:27.174Z,82.43
2019-04-25T02:11:15.200Z,82.37
2019-04-25T02:13:44.887Z,82.42
2019-04-25T02:16:14.833Z,82.42
2019-04-25T02:18:44.708Z,81.87
2019-04-25T02:21:14.259Z,82.28
2019-04-25T02:23:44.335Z,82.28
2019-04-25T02:26:17.436Z,81.47
2019-04-25T02:28:45.888Z,81.47
2019-04-25T02:31:18.429Z,81.66
2019-04-25T02:33:47.271Z,81.04
2019-04-25T02:36:17.073Z,80.87
2019-04-25T02:38:47.070Z,80.87
2019-04-25T02:41:16.632Z,80.87
2019-04-25T02:43:47.048Z,80.77
2019-04-25T02:46:45.157Z,80.92
2019-04-25T02:49:35.409Z,80.92
2019-04-25T02:52:20.824Z,79.97
2019-04-25T02:54:50.755Z,79.97
2019-04-25T02:57:20.401Z,79.36
2019-04-25T02:59:50.198Z,79.94
2019-04-25T03:02:20.006Z,79.35
2019-04-25T03:04:50.228Z,78.86
2019-04-25T03:07:19.861Z,79.12
2019-04-25T03:09:49.634Z,79.10
2019-04-25T03:12:32.496Z,79.10
2019-04-25T03:14:50.757Z,79.02
2019-04-25T03:17:20.912Z,79.02
2019-04-25T03:20:14.702Z,78.80
2019-04-25T03:22:44.494Z,78.80
2019-04-25T03:25:17.447Z,79.26
2019-04-25T03:27:46.282Z,79.28
2019-04-25T03:30:17.981Z,79.26
2019-04-25T03:32:51.346Z,79.31
2019-04-25T03:35:18.950Z,79.18
2019-04-25T03:37:48.657Z,79.18
2019-04-25T03:40:18.681Z,79.43
2019-04-25T03:42:48.362Z,79.43
2019-04-25T03:45:18.097Z,79.16
2019-04-25T03:47:48.172Z,79.24
2019-04-25T03:50:18.068Z,79.49
2019-04-25T03:52:47.765Z,79.19
2019-04-25T03:55:17.383Z,79.19
2019-04-25T03:57:47.197Z,79.48
2019-04-25T04:00:16.822Z,79.48
2019-04-25T04:02:46.599Z,78.95
2019-04-25T04:05:16.685Z,79.33
2019-04-25T04:07:46.206Z,79.33
2019-04-25T04:10:15.875Z,79.13
2019-04-25T04:12:45.418Z,78.52
2019-04-25T04:15:15.999Z,78.22
2019-04-25T04:18:01.718Z,78.22
2019-04-25T04:20:59.823Z,78.56
2019-04-25T04:23:44.050Z,78.55
2019-04-25T04:26:14.531Z,78.69
2019-04-25T04:28:44.235Z,78.33
2019-04-25T04:31:15.417Z,78.63
2019-04-25T04:33:45.376Z,78.53
2019-04-25T04:36:17.416Z,78.29
2019-04-25T04:38:46.420Z,78.06
2019-04-25T04:41:16.457Z,78.62
2019-04-25T04:43:46.061Z,77.70
2019-04-25T04:46:18.230Z,77.31
2019-04-25T04:48:47.855Z,77.31
2019-04-25T04:51:17.518Z,77.93
2019-04-25T04:53:47.312Z,77.54
2019-04-25T04:56:17.591Z,77.54
2019-04-25T04:58:47.271Z,77.25
2019-04-25T05:01:19.061Z,76.32
2019-04-25T05:04:19.708Z,76.32
2019-04-25T05:07:15.317Z,76.16
2019-04-25T05:09:45.974Z,75.88
2019-04-25T05:12:16.215Z,76.21
2019-04-25T05:14:46.109Z,76.15
2019-04-25T05:17:16.356Z,75.57
2019-04-25T05:19:46.246Z,75.57
2019-04-25T05:22:16.930Z,73.28
2019-04-25T05:24:46.486Z,73.69
2019-04-25T05:27:30.624Z,73.31
2019-04-25T05:29:48.320Z,73.31
2019-04-25T05:32:18.172Z,72.92
2019-04-25T05:34:49.393Z,72.62
2019-04-25T05:37:20.087Z,71.58
2019-04-25T05:39:50.076Z,71.06
2019-04-25T05:42:42.039Z,70.55
2019-04-25T05:45:13.052Z,70.75
2019-04-25T05:47:44.266Z,69.78
2019-04-25T05:50:13.987Z,69.50
2019-04-25T05:52:43.927Z,69.92
2019-04-25T05:55:17.555Z,69.92
2019-04-25T05:57:49.993Z,69.24
2019-04-25T06:00:18.957Z,69.05
2019-04-25T06:02:49.171Z,70.63
2019-04-25T06:05:19.076Z,70.12
2019-04-25T06:07:49.024Z,70.02
2019-04-25T06:10:31.053Z,69.85
2019-04-25T06:13:38.649Z,69.85
2019-04-25T06:16:17.788Z,69.61
2019-04-25T06:19:11.308Z,69.42
2019-04-25T06:21:31.783Z,69.61
2019-04-25T06:24:25.739Z,68.65
2019-04-25T06:27:03.756Z,68.81
2019-04-25T06:29:34.853Z,68.81
2019-04-25T06:32:08.357Z,68.30
2019-04-25T06:34:36.546Z,67.79
2019-04-25T06:37:06.459Z,65.82
2019-04-25T06:39:36.977Z,65.82
2019-04-25T06:42:06.867Z,65.37
2019-04-25T06:44:45.206Z,63.91
2019-04-25T06:47:40.391Z,63.39
2019-04-25T06:50:10.091Z,62.33
2019-04-25T06:52:39.999Z,62.22
2019-04-25T06:55:10.002Z,63.00
2019-04-25T06:57:39.869Z,60.70
2019-04-25T07:00:10.473Z,60.70
2019-04-25T07:02:41.028Z,60.13
2019-04-25T07:05:10.902Z,60.13
2019-04-25T07:07:41.131Z,59.11
2019-04-25T07:10:10.826Z,58.90
2019-04-25T07:12:40.819Z,58.93
2019-04-25T07:15:10.943Z,57.81
2019-04-25T07:17:41.148Z,58.26
2019-04-25T07:20:13.808Z,58.01
2019-04-25T07:22:44.140Z,58.01
2019-04-25T07:25:13.852Z,57.61
2019-04-25T07:28:23.355Z,57.19
2019-04-25T07:30:56.848Z,57.36
2019-04-25T07:33:53.239Z,57.36
2019-04-25T07:36:23.309Z,55.86
2019-04-25T07:39:05.172Z,55.86
2019-04-25T07:41:25.917Z,56.36
2019-04-25T07:43:55.563Z,55.49
2019-04-25T07:46:26.194Z,55.49
2019-04-25T07:48:56.036Z,55.31
2019-04-25T07:51:26.716Z,55.31
2019-04-25T07:53:56.988Z,54.18
2019-04-25T07:56:27.707Z,53.61
2019-04-25T07:58:57.390Z,53.63
2019-04-25T08:01:28.148Z,53.93
2019-04-25T08:03:58.601Z,53.83
2019-04-25T08:06:29.361Z,53.83
2019-04-25T08:09:01.396Z,54.41
2019-04-25T08:11:31.920Z,54.92
2019-04-25T08:14:22.161Z,55.58
2019-04-25T08:16:56.354Z,55.58
2019-04-25T08:19:26.387Z,55.44
2019-04-25T08:21:56.774Z,55.45
2019-04-25T08:24:26.662Z,55.95
2019-04-25T08:26:56.774Z,56.20
2019-04-25T08:29:27.883Z,56.03
2019-04-25T08:31:57.651Z,56.03
2019-04-25T08:34:27.261Z,56.37
2019-04-25T08:36:58.654Z,56.37
2019-04-25T08:39:28.540Z,56.35
2019-04-25T08:41:58.376Z,56.47
2019-04-25T08:44:28.467Z,56.47
2019-04-25T08:46:58.232Z,57.36
2019-04-25T08:49:36.313Z,57.41
2019-04-25T08:52:06.129Z,57.41
2019-04-25T08:54:47.617Z,57.17
2019-04-25T08:57:25.626Z,57.40
2019-04-25T09:00:11.263Z,57.12
2019-04-25T09:02:50.023Z,57.12
2019-04-25T09:05:26.253Z,57.12
2019-04-25T09:08:00.866Z,57.12
2019-04-25T09:10:30.901Z,57.61
2019-04-25T09:13:03.186Z,57.44
2019-04-25T09:15:35.668Z,57.44
2019-04-25T09:18:06.055Z,57.23
2019-04-25T09:20:40.289Z,57.27
2019-04-25T09:23:08.754Z,56.24
2019-04-25T09:25:38.820Z,56.24
2019-04-25T09:28:08.840Z,56.22
2019-04-25T09:30:38.523Z,55.70
2019-04-25T09:33:08.278Z,54.91
2019-04-25T09:35:41.649Z,54.51
2019-04-25T09:38:13.293Z,55.53
2019-04-25T09:40:44.445Z,55.53
2019-04-25T09:43:18.421Z,53.73
2019-04-25T09:46:24.220Z,53.40
2019-04-25T09:49:17.946Z,53.57
2019-04-25T09:52:00.141Z,53.59
2019-04-25T09:54:38.285Z,52.65
2019-04-25T09:57:28.158Z,52.26
2019-04-25T10:00:03.638Z,52.43
2019-04-25T10:02:30.722Z,52.43
2019-04-25T10:05:04.041Z,51.97
2019-04-25T10:07:33.530Z,52.52
2019-04-25T10:10:03.819Z,52.49
2019-04-25T10:12:34.223Z,51.89
2019-04-25T10:15:15.849Z,51.89
2019-04-25T10:17:46.557Z,51.10
2019-04-25T10:20:25.367Z,51.10
2019-04-25T10:22:55.221Z,51.50
2019-04-25T10:25:24.892Z,50.57
2019-04-25T10:27:54.739Z,49.63
2019-04-25T10:30:26.028Z,49.59
2019-04-25T10:32:58.687Z,49.59
2019-04-25T10:35:31.016Z,48.26
2019-04-25T10:38:00.580Z,48.26
2019-04-25T10:40:30.532Z,47.77
2019-04-25T10:43:00.070Z,47.59
2019-04-25T10:45:34.119Z,47.69
2019-04-25T10:48:04.253Z,47.82
2019-04-25T10:50:34.276Z,46.28
2019-04-25T10:53:05.344Z,46.50
2019-04-25T10:55:43.557Z,46.50
2019-04-25T10:58:14.191Z,46.03
2019-04-25T11:00:47.450Z,46.03
2019-04-25T11:03:48.440Z,46.17
2019-04-25T11:06:23.298Z,44.07
2019-04-25T11:08:55.489Z,44.07
2019-04-25T11:11:24.747Z,44.34
2019-04-25T11:13:55.659Z,45.11
2019-04-25T11:16:25.549Z,45.11
2019-04-25T11:18:55.293Z,45.13
2019-04-25T11:21:27.067Z,42.96
2019-04-25T11:23:56.725Z,42.96
2019-04-25T11:26:28.088Z,42.06
2019-04-25T11:28:58.606Z,43.19
2019-04-25T11:31:37.577Z,42.50
2019-04-25T11:34:07.657Z,40.41
2019-04-25T11:36:37.183Z,41.11
2019-04-25T11:39:32.902Z,41.39
2019-04-25T11:42:04.550Z,41.18
2019-04-25T11:44:40.233Z,41.18
2019-04-25T11:47:11.164Z,41.08
2019-04-25T11:49:42.093Z,40.66
2019-04-25T11:52:26.531Z,41.51
2019-04-25T11:54:46.750Z,41.51
2019-04-25T11:57:16.661Z,41.08
2019-04-25T11:59:49.230Z,39.92
2019-04-25T12:02:20.618Z,40.14
2019-04-25T12:04:51.052Z,39.58
2019-04-25T12:07:21.334Z,39.88
2019-04-25T12:09:52.186Z,39.60
2019-04-25T12:12:23.598Z,39.60
2019-04-25T12:14:54.362Z,39.23
2019-04-25T12:17:25.082Z,39.30
2019-04-25T12:19:55.953Z,39.30
2019-04-25T12:22:30.219Z,39.32
2019-04-25T12:24:59.847Z,39.32
2019-04-25T12:27:30.354Z,39.27
2019-04-25T12:30:00.230Z,38.38
2019-04-25T12:32:29.711Z,38.37
2019-04-25T12:34:59.253Z,38.73
2019-04-25T12:37:35.089Z,39.08
2019-04-25T12:40:06.756Z,38.81
2019-04-25T12:42:36.876Z,38.81
2019-04-25T12:45:24.143Z,40.25
2019-04-25T12:47:59.182Z,40.25
2019-04-25T12:50:28.494Z,38.57
2019-04-25T12:53:01.275Z,39.08
2019-04-25T12:55:31.144Z,38.22
2019-04-25T12:58:00.942Z,38.22
2019-04-25T13:00:31.023Z,37.45
2019-04-25T13:03:01.566Z,37.35
2019-04-25T13:05:31.283Z,37.35
2019-04-25T13:08:01.445Z,38.12
2019-04-25T13:10:31.240Z,37.32
2019-04-25T13:13:01.091Z,37.74
2019-04-25T13:15:34.210Z,38.01
2019-04-25T13:18:04.136Z,37.29
2019-04-25T13:20:34.076Z,37.29
2019-04-25T13:23:05.898Z,35.82
2019-04-25T13:25:35.807Z,36.70
2019-04-25T13:28:24.643Z,35.52
2019-04-25T13:31:16.549Z,35.09
2019-04-25T13:34:05.911Z,35.40
2019-04-25T13:36:44.314Z,35.40
2019-04-25T13:39:19.878Z,36.04
2019-04-25T13:41:49.742Z,35.62
2019-04-25T13:44:19.490Z,34.87
2019-04-25T13:46:49.034Z,34.87
2019-04-25T13:49:19.471Z,36.23
2019-04-25T13:51:49.895Z,35.20
2019-04-25T13:54:19.369Z,35.49
2019-04-25T13:56:49.203Z,35.76
2019-04-25T13:59:23.518Z,35.28
2019-04-25T14:01:57.577Z,35.28
2019-04-25T14:04:28.056Z,34.92
2019-04-25T14:06:57.668Z,35.02
2019-04-25T14:09:34.573Z,34.56
2019-04-25T14:12:05.285Z,34.56
2019-04-25T14:14:37.469Z,33.92
2019-04-25T14:17:15.399Z,33.55
2019-04-25T14:20:07.150Z,33.55
2019-04-25T14:22:36.987Z,33.00
2019-04-25T14:25:07.194Z,33.00
2019-04-25T14:27:37.061Z,33.74
2019-04-25T14:30:13.485Z,33.85
2019-04-25T14:32:46.025Z,33.02
2019-04-25T14:35:15.584Z,33.02
2019-04-25T14:37:46.227Z,32.64
2019-04-25T14:40:16.205Z,32.58
2019-04-25T14:42:46.018Z,33.08
2019-04-25T14:45:17.976Z,33.08
2019-04-25T14:47:49.318Z,33.94
2019-04-25T14:50:18.745Z,33.70
2019-04-25T14:52:48.708Z,33.86
2019-04-25T14:55:36.135Z,34.46
2019-04-25T14:58:09.927Z,34.46
2019-04-25T15:00:42.437Z,34.78
2019-04-25T15:03:12.105Z,34.83
2019-04-25T15:05:43.433Z,34.60
2019-04-25T15:08:13.658Z,34.80
2019-04-25T15:10:43.780Z,35.46
2019-04-25T15:13:13.873Z,35.53
2019-04-25T15:15:44.183Z,35.53
2019-04-25T15:18:14.901Z,34.91
2019-04-25T15:20:44.649Z,35.32
2019-04-25T15:23:14.575Z,35.03
2019-04-25T15:25:44.442Z,36.06
2019-04-25T15:28:14.147Z,36.56
2019-04-25T15:30:46.022Z,36.20
2019-04-25T15:33:15.456Z,36.20
2019-04-25T15:35:53.655Z,36.02
2019-04-25T15:38:39.836Z,36.02
2019-04-25T15:41:20.311Z,36.08
2019-04-25T15:44:08.993Z,36.73
2019-04-25T15:46:40.425Z,36.28
2019-04-25T15:49:16.669Z,35.72
2019-04-25T15:51:48.487Z,36.51
2019-04-25T15:56:46.707Z,36.43
2019-04-25T15:59:16.203Z,36.53
2019-04-25T16:01:49.223Z,36.53
2019-04-25T16:04:18.677Z,36.55
2019-04-25T16:06:48.118Z,37.48
2019-04-25T16:14:15.920Z,36.88
2019-04-25T16:16:45.887Z,37.37
2019-04-25T16:19:15.706Z,37.37
2019-04-25T16:21:45.839Z,36.72
2019-04-25T16:24:15.757Z,36.63
2019-04-25T16:26:45.431Z,37.69
2019-04-25T16:29:15.558Z,38.24
2019-04-25T16:31:45.466Z,38.24
2019-04-25T16:34:15.486Z,37.72
2019-04-25T16:36:45.377Z,38.61
2019-04-25T16:39:19.136Z,38.66
2019-04-25T16:41:49.807Z,38.66
2019-04-25T16:44:21.568Z,38.52
2019-04-25T16:46:54.555Z,39.12
2019-04-25T16:49:29.827Z,38.85
2019-04-25T16:51:59.663Z,39.04
2019-04-25T16:54:30.414Z,40.08
2019-04-25T16:57:00.295Z,39.78
2019-04-25T16:59:30.069Z,39.03
2019-04-25T17:02:00.559Z,39.03
2019-04-25T17:04:31.114Z,40.11
2019-04-25T17:07:01.044Z,39.70
2019-04-25T17:09:30.965Z,40.76
2019-04-25T17:12:05.562Z,41.04
2019-04-25T17:14:42.907Z,40.43
2019-04-25T17:17:40.489Z,40.08
2019-04-25T17:20:18.174Z,40.38
2019-04-25T17:22:48.014Z,40.38
2019-04-25T17:25:17.827Z,40.76
2019-04-25T17:27:47.375Z,40.90
2019-04-25T17:30:18.323Z,41.17
2019-04-25T17:33:01.894Z,41.17
2019-04-25T17:35:53.158Z,41.38
2019-04-25T17:38:45.812Z,41.38
2019-04-25T17:41:15.743Z,40.57
2019-04-25T17:43:45.472Z,41.31
2019-04-25T17:46:19.904Z,41.67
2019-04-25T17:48:49.366Z,42.71
2019-04-25T17:51:22.760Z,42.71
2019-04-25T17:53:52.287Z,42.95
2019-04-25T17:56:22.218Z,44.61
2019-04-25T17:58:52.216Z,44.61
2019-04-25T18:01:24.368Z,44.47
2019-04-25T18:03:54.769Z,44.47
2019-04-25T18:06:29.161Z,45.79
2019-04-25T18:09:01.327Z,45.77
2019-04-25T18:11:32.044Z,45.77
2019-04-25T18:14:02.579Z,46.09
2019-04-25T18:16:38.181Z,47.00
2019-04-25T18:19:18.278Z,47.10
2019-04-25T18:21:48.293Z,47.10
2019-04-25T18:24:36.686Z,47.96
2019-04-25T18:27:25.619Z,48.88
2019-04-25T18:29:56.591Z,48.88
2019-04-25T18:32:31.169Z,48.41
2019-04-25T18:35:08.879Z,49.57
2019-04-25T18:37:52.373Z,49.97
2019-04-25T18:40:29.756Z,49.97
2019-04-25T18:43:30.396Z,50.42
2019-04-25T18:46:05.204Z,50.59
2019-04-25T18:48:34.859Z,50.59
2019-04-25T18:51:04.643Z,51.13
2019-04-25T18:54:02.737Z,51.47
2019-04-25T18:57:00.535Z,52.82
2019-04-25T18:59:49.502Z,52.82
2019-04-25T19:02:44.211Z,53.09
2019-04-25T19:05:26.224Z,51.81
2019-04-25T19:07:57.484Z,52.88
2019-04-25T19:10:27.670Z,52.88
2019-04-25T19:12:57.360Z,53.28
2019-04-25T19:15:29.458Z,52.09
2019-04-25T19:18:01.383Z,52.09
2019-04-25T19:20:34.429Z,53.34
2019-04-25T19:23:04.610Z,53.34
2019-04-25T19:25:34.934Z,52.71
2019-04-25T19:28:06.253Z,52.78
2019-04-25T19:30:35.820Z,52.78
2019-04-25T19:33:11.656Z,52.54
2019-04-25T19:35:43.587Z,53.20
2019-04-25T19:38:13.282Z,54.53
2019-04-25T19:40:53.857Z,54.65
2019-04-25T19:43:30.934Z,54.65
2019-04-25T19:46:01.076Z,55.49
2019-04-25T19:48:33.129Z,54.80
2019-04-25T19:51:02.776Z,54.80
2019-04-25T19:53:33.745Z,55.39
2019-04-25T19:56:03.531Z,56.50
2019-04-25T19:58:33.366Z,56.50
2019-04-25T20:01:04.635Z,56.29
2019-04-25T20:04:12.088Z,56.75
2019-04-25T20:07:09.702Z,57.18
2019-04-25T20:09:57.356Z,59.04
2019-04-25T20:12:31.245Z,59.04
2019-04-25T20:15:01.959Z,59.88
2019-04-25T20:17:31.681Z,59.37
2019-04-25T20:20:01.574Z,59.37
2019-04-25T20:22:31.750Z,58.63
2019-04-25T20:25:02.151Z,58.63
2019-04-25T20:27:32.259Z,59.42
2019-04-25T20:30:03.276Z,60.34
2019-04-25T20:32:36.138Z,59.17
2019-04-25T20:35:09.649Z,58.70
2019-04-25T20:37:39.635Z,59.68
2019-04-25T20:40:11.277Z,59.10
2019-04-25T20:42:44.381Z,59.73
2019-04-25T20:45:16.382Z,59.73
2019-04-25T20:47:47.979Z,60.41
2019-04-25T20:50:22.255Z,60.41
2019-04-25T20:52:53.039Z,60.40
2019-04-25T20:55:22.742Z,60.74
2019-04-25T20:57:53.243Z,60.98
2019-04-25T21:00:43.656Z,61.96
2019-04-25T21:03:14.096Z,61.96
2019-04-25T21:05:45.067Z,61.91
2019-04-25T21:08:15.001Z,61.91
2019-04-25T21:10:44.999Z,61.53
2019-04-25T21:13:19.318Z,63.09
2019-04-25T21:15:56.230Z,63.09
2019-04-25T21:18:51.791Z,63.46
2019-04-25T21:23:48.833Z,63.72
2019-04-25T21:26:21.747Z,63.17
2019-04-25T21:28:52.239Z,63.48
2019-04-25T21:31:52.575Z,63.89
2019-04-25T21:34:40.456Z,64.89
2019-04-25T21:37:12.500Z,65.28
2019-04-25T21:40:13.902Z,65.28
2019-04-25T21:43:09.389Z,65.55
2019-04-25T21:45:39.680Z,66.07
2019-04-25T21:48:10.028Z,66.26
2019-04-25T21:50:40.372Z,65.93
2019-04-25T21:53:10.828Z,66.36
2019-04-25T21:55:40.895Z,67.05
2019-04-25T21:58:11.033Z,67.05
2019-04-25T22:01:00.162Z,67.52
2019-04-25T22:03:32.434Z,68.17
2019-04-25T22:06:19.389Z,68.85
2019-04-25T22:08:50.150Z,68.85
2019-04-25T22:11:20.024Z,68.14
2019-04-25T22:13:50.530Z,68.50
2019-04-25T22:16:20.832Z,68.50
2019-04-25T22:18:51.016Z,69.44
2019-04-25T22:21:20.945Z,69.44
2019-04-25T22:24:03.080Z,68.91
2019-04-25T22:26:22.686Z,69.52
2019-04-25T22:28:52.654Z,69.52
2019-04-25T22:31:27.853Z,69.16
2019-04-25T22:34:15.767Z,69.16
2019-04-25T22:36:46.351Z,69.48
2019-04-25T22:39:16.063Z,69.48
2019-04-25T22:41:50.092Z,69.24
2019-04-25T22:44:19.421Z,69.51
2019-04-25T22:46:49.622Z,69.74
2019-04-25T22:49:19.365Z,69.25
2019-04-25T22:51:49.386Z,69.25
2019-04-25T22:54:19.386Z,69.75
2019-04-25T22:56:49.651Z,69.75
2019-04-25T22:59:19.606Z,69.73
2019-04-25T23:02:11.721Z,70.14
2019-04-25T23:05:05.390Z,70.14
2019-04-25T23:07:27.147Z,69.47
2019-04-25T23:09:57.287Z,69.19
2019-04-25T23:12:27.341Z,69.19
2019-04-25T23:14:57.718Z,69.29
2019-04-25T23:17:27.516Z,70.81
2019-04-25T23:19:57.639Z,70.81
2019-04-25T23:22:27.757Z,69.72
2019-04-25T23:25:04.548Z,69.72
2019-04-25T23:27:56.254Z,70.38
2019-04-25T23:30:32.065Z,70.59
2019-04-25T23:33:01.863Z,70.59
2019-04-25T23:35:34.314Z,71.50
2019-04-25T23:38:05.621Z,71.50
2019-04-25T23:40:35.366Z,71.52
2019-04-25T23:43:06.157Z,71.39
2019-04-25T23:45:35.979Z,71.86
2019-04-25T23:48:06.043Z,71.88
2019-04-25T23:50:36.740Z,72.05
2019-04-25T23:53:06.522Z,72.05
2019-04-25T23:55:38.015Z,72.05
2019-04-25T23:58:08.812Z,72.37
